Time;durP1;ratioP1;P1;durP2;ratioP2;P2;SDS_P1;SDS_P2;PMS_P1;PMS_P2;Temp;Humidity;BMP_temperature;BMP_pressure;BME280_temperature;BME280_humidity;BME280_pressure;Samples;Min_cycle;Max_cycle;Signal;HPM_P1;HPM_P2
2022/05/11 00:01:32;;;;;;;2.63;0.70;;;22.00;65.20;;;;;;5013292;28;20028;-65
2022/05/11 00:04:00;;;;;;;0.80;0.38;;;22.00;65.50;;;;;;5012844;28;20390;-64
2022/05/11 00:06:27;;;;;;;1.17;0.35;;;22.00;65.50;;;;;;5013482;28;20116;-63
2022/05/11 00:08:54;;;;;;;3.78;0.50;;;22.00;65.50;;;;;;5017414;28;20021;-65
2022/05/11 00:11:20;;;;;;;1.50;0.40;;;22.00;65.50;;;;;;5017331;28;20140;-62
2022/05/11 00:13:46;;;;;;;2.17;0.63;;;21.90;65.40;;;;;;5017092;28;20026;-63
2022/05/11 00:16:12;;;;;;;1.63;0.50;;;21.90;65.40;;;;;;5017326;28;20069;-64
2022/05/11 00:18:38;;;;;;;3.25;0.52;;;21.90;65.50;;;;;;5016571;28;20072;-64
2022/05/11 00:21:04;;;;;;;1.90;0.50;;;21.90;65.50;;;;;;5016946;28;20086;-64
2022/05/11 00:23:30;;;;;;;1.10;0.50;;;21.90;65.60;;;;;;5017004;28;20164;-63
2022/05/11 00:25:56;;;;;;;1.88;0.45;;;21.90;65.60;;;;;;5016783;28;20125;-65
2022/05/11 00:28:21;;;;;;;1.73;0.40;;;21.90;65.40;;;;;;5016624;28;20034;-64
2022/05/11 00:30:48;;;;;;;3.35;0.80;;;21.90;65.50;;;;;;5016918;28;20093;-64
2022/05/11 00:33:15;;;;;;;0.60;0.20;;;21.90;65.20;;;;;;5016421;28;20029;-64
2022/05/11 00:35:42;;;;;;;2.78;0.35;;;21.80;65.40;;;;;;5016790;28;20026;-65
2022/05/11 00:38:08;;;;;;;1.20;0.43;;;21.80;65.60;;;;;;5016752;28;20033;-64
2022/05/11 00:40:46;;;;;;;0.73;0.30;;;21.80;65.70;;;;;;5010221;28;20030;-64
2022/05/11 00:43:12;;;;;;;0.90;0.40;;;21.80;65.60;;;;;;4999244;28;20027;-63
2022/05/11 00:45:44;;;;;;;2.13;0.25;;;21.80;65.60;;;;;;4995663;28;20084;-64
2022/05/11 00:50:58;;;;;;;1.42;0.52;;;21.70;65.60;;;;;;4996805;28;20490;-65
2022/05/11 00:53:24;;;;;;;1.42;0.50;;;21.70;65.80;;;;;;4996745;28;20026;-64
2022/05/11 00:55:56;;;;;;;1.48;0.40;;;21.70;65.80;;;;;;4996937;28;20023;-63
2022/05/11 00:58:55;;;;;;;1.63;0.50;;;21.70;65.90;;;;;;4996619;28;20034;-61
2022/05/11 01:01:20;;;;;;;0.98;0.40;;;21.70;66.00;;;;;;5000123;28;20122;-64
2022/05/11 01:04:02;;;;;;;1.00;0.40;;;21.70;65.80;;;;;;4996354;28;20117;-64
2022/05/11 01:06:30;;;;;;;3.33;0.40;;;21.70;66.00;;;;;;4996619;28;20113;-65
2022/05/11 01:08:55;;;;;;;2.10;0.35;;;21.60;65.80;;;;;;4996548;28;20026;-65
2022/05/11 01:11:21;;;;;;;1.00;0.60;;;21.60;65.90;;;;;;4996614;28;20106;-64
2022/05/11 01:13:47;;;;;;;1.10;0.45;;;21.60;65.80;;;;;;4996667;28;20042;-64
2022/05/11 01:16:13;;;;;;;1.75;0.55;;;21.60;65.80;;;;;;4996575;28;20030;-65
2022/05/11 01:18:40;;;;;;;1.55;0.40;;;21.60;65.70;;;;;;4994681;28;20033;-65
2022/05/11 01:21:07;;;;;;;1.50;0.85;;;21.50;65.50;;;;;;4996287;28;20022;-65
2022/05/11 01:23:52;;;;;;;1.17;0.43;;;21.50;65.30;;;;;;4996486;28;20030;-65
2022/05/11 01:26:18;;;;;;;1.63;0.50;;;21.50;65.70;;;;;;4995971;28;20125;-64
2022/05/11 01:28:47;;;;;;;1.67;0.45;;;21.50;65.50;;;;;;4996297;28;20027;-65
2022/05/11 01:31:14;;;;;;;1.75;0.45;;;21.50;65.80;;;;;;4995858;28;20045;-64
2022/05/11 01:33:45;;;;;;;3.03;0.70;;;21.50;66.00;;;;;;4996101;28;20022;-65
2022/05/11 01:36:25;;;;;;;2.35;0.45;;;21.50;65.90;;;;;;4995904;28;20048;-64
2022/05/11 01:38:57;;;;;;;1.52;0.50;;;21.40;65.80;;;;;;4996431;28;20022;-65
2022/05/11 01:41:39;;;;;;;1.92;0.45;;;21.50;66.00;;;;;;4995915;28;20019;-65
2022/05/11 01:44:07;;;;;;;1.93;0.50;;;21.40;65.60;;;;;;4995941;28;20046;-65
2022/05/11 01:46:34;;;;;;;1.77;0.70;;;21.40;65.80;;;;;;4995386;28;20080;-65
2022/05/11 01:49:00;;;;;;;1.98;0.65;;;21.30;65.80;;;;;;4994659;28;20357;-65
2022/05/11 01:51:26;;;;;;;1.50;0.47;;;21.40;66.00;;;;;;4994162;28;20036;-61
2022/05/11 01:53:52;;;;;;;0.93;0.40;;;21.40;66.20;;;;;;4995883;28;20457;-65
2022/05/11 01:56:19;;;;;;;2.25;0.50;;;21.40;66.30;;;;;;4995811;28;20062;-65
2022/05/11 01:58:45;;;;;;;1.98;0.55;;;21.40;66.40;;;;;;4995792;28;20895;-65
2022/05/11 02:01:11;;;;;;;2.08;0.60;;;21.40;66.40;;;;;;4995241;28;20023;-64
2022/05/11 02:03:37;;;;;;;2.00;0.70;;;21.40;66.40;;;;;;4995489;28;20030;-64
2022/05/11 02:08:47;;;;;;;1.52;0.65;;;21.30;66.40;;;;;;4995556;28;20033;-65
2022/05/11 02:11:14;;;;;;;1.80;0.60;;;21.30;66.50;;;;;;4995309;28;20105;-64
2022/05/11 02:13:40;;;;;;;1.33;0.70;;;21.30;66.60;;;;;;4995322;28;20022;-65
2022/05/11 02:16:06;;;;;;;5.30;0.65;;;21.30;66.50;;;;;;4995005;28;20061;-64
2022/05/11 02:18:32;;;;;;;2.75;0.88;;;21.30;66.60;;;;;;4995415;28;20052;-64
2022/05/11 02:20:58;;;;;;;2.22;0.50;;;21.30;66.60;;;;;;4995200;28;20065;-64
2022/05/11 02:23:25;;;;;;;2.17;0.75;;;21.30;66.60;;;;;;4995479;28;20042;-64
2022/05/11 02:25:51;;;;;;;2.17;0.45;;;21.30;66.60;;;;;;4994832;28;20100;-63
2022/05/11 02:28:21;;;;;;;3.20;0.93;;;21.20;66.60;;;;;;4995065;28;20114;-64
2022/05/11 02:30:48;;;;;;;2.95;0.95;;;21.20;66.70;;;;;;4994422;28;20093;-64
2022/05/11 02:33:14;;;;;;;1.75;0.63;;;21.20;66.60;;;;;;4995211;28;20022;-65
2022/05/11 02:35:41;;;;;;;2.85;0.47;;;21.20;66.60;;;;;;4994910;28;20027;-66
2022/05/11 02:38:10;;;;;;;2.35;0.85;;;21.20;66.80;;;;;;4994913;28;20029;-65
2022/05/11 02:40:37;;;;;;;2.35;0.93;;;21.20;66.80;;;;;;4994698;28;20395;-65
2022/05/11 02:43:04;;;;;;;3.00;0.98;;;21.10;66.80;;;;;;4995058;28;20026;-65
2022/05/11 02:45:31;;;;;;;1.42;0.50;;;21.10;66.90;;;;;;4994584;28;20039;-64
2022/05/11 02:47:58;;;;;;;1.15;0.57;;;21.10;66.90;;;;;;4994734;28;20077;-65
2022/05/11 02:50:28;;;;;;;2.70;0.82;;;21.10;67.00;;;;;;4994681;28;20130;-65
2022/05/11 02:52:54;;;;;;;2.08;0.60;;;21.10;67.00;;;;;;4994571;28;20125;-65
2022/05/11 02:55:19;;;;;;;3.10;0.70;;;21.10;67.10;;;;;;4994566;28;20035;-64
2022/05/11 02:57:45;;;;;;;2.40;0.60;;;21.10;67.20;;;;;;4994155;28;20035;-64
2022/05/11 03:00:15;;;;;;;2.50;0.75;;;21.00;67.20;;;;;;4994616;28;20053;-64
2022/05/11 03:02:41;;;;;;;1.73;0.52;;;21.10;67.30;;;;;;4994269;28;20110;-65
2022/05/11 03:05:07;;;;;;;0.90;0.38;;;21.00;67.30;;;;;;4994393;28;20105;-64
2022/05/11 03:07:33;;;;;;;4.65;0.93;;;21.00;67.30;;;;;;4994907;28;20057;-65
2022/05/11 03:09:58;;;;;;;2.85;0.70;;;21.00;67.20;;;;;;4994263;28;20058;-65
2022/05/11 03:12:24;;;;;;;3.67;0.60;;;21.00;67.10;;;;;;4994103;28;20505;-65
2022/05/11 03:14:53;;;;;;;3.55;0.88;;;20.90;66.90;;;;;;4994211;28;20471;-64
2022/05/11 03:17:19;;;;;;;3.70;0.80;;;20.90;67.00;;;;;;4994177;28;20072;-64
2022/05/11 03:19:44;;;;;;;4.03;0.80;;;20.90;67.10;;;;;;4994235;28;20030;-64
2022/05/11 03:22:10;;;;;;;4.50;0.88;;;20.90;67.00;;;;;;4994163;28;20526;-64
2022/05/11 03:24:35;;;;;;;2.10;0.70;;;20.90;67.20;;;;;;4993791;28;20035;-64
2022/05/11 03:27:01;;;;;;;2.35;1.00;;;20.90;67.10;;;;;;4993553;28;20026;-63
2022/05/11 03:29:26;;;;;;;2.83;0.70;;;20.80;67.20;;;;;;4994034;28;20035;-64
2022/05/11 03:34:36;;;;;;;3.55;1.00;;;20.80;67.20;;;;;;4994106;28;20411;-61
2022/05/11 03:37:02;;;;;;;13.15;1.58;;;20.80;67.30;;;;;;4993833;28;20027;-63
2022/05/11 03:39:28;;;;;;;8.35;1.15;;;20.70;67.60;;;;;;4993982;28;20022;-63
2022/05/11 03:41:53;;;;;;;4.75;0.80;;;20.70;67.90;;;;;;4991568;28;20431;-62
2022/05/11 03:44:19;;;;;;;5.13;1.30;;;20.70;68.00;;;;;;4993813;28;20469;-62
2022/05/11 03:46:45;;;;;;;4.13;0.95;;;20.70;68.00;;;;;;4993699;28;20058;-62
2022/05/11 03:49:10;;;;;;;1.95;0.63;;;20.70;68.00;;;;;;4993786;28;20050;-62
2022/05/11 03:51:36;;;;;;;4.90;0.93;;;20.70;68.00;;;;;;4993759;28;20081;-62
2022/05/11 03:54:02;;;;;;;4.53;0.70;;;20.70;68.00;;;;;;4993701;28;20018;-63
2022/05/11 03:56:28;;;;;;;1.67;0.73;;;20.70;68.20;;;;;;4993280;28;20089;-63
2022/05/11 03:58:56;;;;;;;2.67;0.73;;;20.60;68.00;;;;;;4993477;28;20027;-62
2022/05/11 04:01:21;;;;;;;1.77;0.70;;;20.70;68.00;;;;;;4993527;28;20032;-62
2022/05/11 04:03:47;;;;;;;3.10;0.85;;;20.70;68.20;;;;;;4993630;28;20101;-63
2022/05/11 04:06:12;;;;;;;2.17;0.68;;;20.70;68.30;;;;;;4993549;28;20027;-61
2022/05/11 04:08:38;;;;;;;6.15;0.80;;;20.70;68.30;;;;;;4993585;28;20027;-63
2022/05/11 04:11:04;;;;;;;1.67;0.82;;;20.60;68.10;;;;;;4993255;28;20034;-63
2022/05/11 04:13:30;;;;;;;3.17;0.70;;;20.60;68.20;;;;;;4993591;28;20484;-63
2022/05/11 04:15:56;;;;;;;3.83;1.23;;;20.60;68.20;;;;;;4993501;28;20065;-62
2022/05/11 04:18:22;;;;;;;4.15;1.30;;;20.60;68.20;;;;;;4993593;28;20022;-63
2022/05/11 04:20:48;;;;;;;4.80;2.38;;;20.60;68.10;;;;;;4993503;28;20031;-63
2022/05/11 04:23:13;;;;;;;5.65;2.10;;;20.60;68.10;;;;;;4993390;28;20037;-62
2022/05/11 04:25:39;;;;;;;6.25;2.63;;;20.50;68.10;;;;;;4993110;28;20040;-62
2022/05/11 04:28:12;;;;;;;4.20;1.60;;;20.50;68.10;;;;;;4993214;28;20058;-63
2022/05/11 04:30:39;;;;;;;5.20;1.58;;;20.50;68.20;;;;;;4993376;28;20033;-63
2022/05/11 04:33:05;;;;;;;3.83;1.23;;;20.50;68.20;;;;;;4993343;28;20029;-63
2022/05/11 04:35:31;;;;;;;4.55;1.52;;;20.50;68.40;;;;;;4993806;28;20409;-63
2022/05/11 04:37:58;;;;;;;3.90;1.25;;;20.40;68.30;;;;;;4993452;28;20464;-62
2022/05/11 04:40:25;;;;;;;3.58;1.40;;;20.40;68.30;;;;;;4993166;28;20052;-63
2022/05/11 04:42:51;;;;;;;1.67;1.00;;;20.40;68.40;;;;;;4993364;28;20472;-62
2022/05/11 04:45:17;;;;;;;4.68;1.38;;;20.40;68.50;;;;;;4993060;28;20034;-62
2022/05/11 04:47:43;;;;;;;5.88;2.15;;;20.30;68.50;;;;;;4993385;28;20487;-62
2022/05/11 04:50:11;;;;;;;6.32;1.85;;;20.30;68.60;;;;;;4991847;28;20037;-61
2022/05/11 04:52:37;;;;;;;4.72;1.50;;;20.30;68.60;;;;;;4993985;28;20098;-63
2022/05/11 04:55:04;;;;;;;3.30;1.30;;;20.30;68.60;;;;;;4996424;28;20050;-63
2022/05/11 04:57:30;;;;;;;5.35;1.15;;;20.30;68.60;;;;;;4996900;28;20026;-62
2022/05/11 04:59:56;;;;;;;3.47;1.10;;;20.30;68.80;;;;;;4996660;28;20164;-61
2022/05/11 05:02:24;;;;;;;2.92;1.10;;;20.30;68.70;;;;;;5007589;28;20030;-63
2022/05/11 05:04:50;;;;;;;5.28;1.20;;;20.30;68.80;;;;;;4994853;28;20037;-62
2022/05/11 05:07:16;;;;;;;3.42;1.17;;;20.30;68.80;;;;;;4994466;28;20032;-61
2022/05/11 05:09:43;;;;;;;4.50;1.60;;;20.30;69.00;;;;;;4996068;28;20030;-62
2022/05/11 05:12:10;;;;;;;4.13;1.20;;;20.30;68.90;;;;;;4996707;28;20022;-63
2022/05/11 05:14:35;;;;;;;2.92;0.80;;;20.30;68.90;;;;;;4996082;28;20034;-59
2022/05/11 05:17:03;;;;;;;3.05;0.82;;;20.30;69.00;;;;;;4996410;28;20026;-61
2022/05/11 05:19:29;;;;;;;2.85;0.98;;;20.30;69.10;;;;;;4996158;28;20043;-62
2022/05/11 05:21:54;;;;;;;6.43;1.23;;;20.30;68.90;;;;;;4996612;28;20050;-60
2022/05/11 05:24:20;;;;;;;3.67;0.98;;;20.30;69.00;;;;;;4996001;28;20026;-60
2022/05/11 05:26:46;;;;;;;2.88;1.38;;;20.30;69.10;;;;;;4995809;28;20050;-61
2022/05/11 05:31:55;;;;;;;3.30;0.82;;;20.30;69.00;;;;;;4996246;28;20471;-60
2022/05/11 05:34:21;;;;;;;3.45;1.08;;;20.30;69.00;;;;;;5008757;28;20038;-59
2022/05/11 05:36:47;;;;;;;2.40;1.17;;;20.30;69.00;;;;;;5014881;28;21624;-61
2022/05/11 05:39:13;;;;;;;3.60;1.23;;;20.30;69.00;;;;;;5009131;28;20093;-62
2022/05/11 05:41:38;;;;;;;3.53;1.00;;;20.40;69.00;;;;;;5008575;28;20797;-62
2022/05/11 05:44:06;;;;;;;7.35;1.50;;;20.40;69.00;;;;;;5020859;28;20112;-69
2022/05/11 05:46:36;;;;;;;5.88;1.13;;;20.40;68.70;;;;;;5012148;28;20375;-63
2022/05/11 05:49:03;;;;;;;6.47;1.83;;;20.40;68.40;;;;;;5029322;28;20022;-63
2022/05/11 05:51:29;;;;;;;7.28;1.67;;;20.40;68.20;;;;;;5002524;28;20372;-62
2022/05/11 05:53:55;;;;;;;9.48;1.30;;;20.40;67.40;;;;;;5007852;28;20029;-63
2022/05/11 05:56:21;;;;;;;6.90;1.23;;;20.30;67.70;;;;;;5009290;28;20054;-63
2022/05/11 05:58:47;;;;;;;6.40;1.63;;;20.30;67.50;;;;;;4998990;28;20038;-64
2022/05/11 06:01:14;;;;;;;4.72;1.40;;;20.40;67.90;;;;;;5008148;28;20045;-60
2022/05/11 06:03:40;;;;;;;6.88;1.58;;;20.30;66.50;;;;;;5009326;28;20034;-62
2022/05/11 06:06:07;;;;;;;4.50;0.95;;;20.30;66.00;;;;;;5014540;28;20499;-61
2022/05/11 06:08:33;;;;;;;4.18;1.05;;;20.30;66.40;;;;;;5004464;28;20061;-60
2022/05/11 06:10:59;;;;;;;3.95;0.95;;;20.30;66.80;;;;;;5010803;28;20061;-61
2022/05/11 06:13:26;;;;;;;8.73;1.55;;;20.30;67.10;;;;;;5012608;28;20065;-60
2022/05/11 06:15:53;;;;;;;12.35;1.70;;;20.40;66.80;;;;;;5012880;28;20018;-62
2022/05/11 06:18:20;;;;;;;8.55;1.30;;;20.40;66.60;;;;;;5012009;28;20061;-60
2022/05/11 06:20:51;;;;;;;7.03;1.33;;;20.40;66.50;;;;;;5005755;28;20037;-60
2022/05/11 06:23:17;;;;;;;5.28;1.50;;;20.40;66.10;;;;;;5014485;28;20034;-59
2022/05/11 06:25:43;;;;;;;5.95;1.13;;;20.40;65.40;;;;;;5001167;28;20038;-62
2022/05/11 06:28:08;;;;;;;8.98;1.17;;;20.40;65.30;;;;;;4996615;28;20037;-60
2022/05/11 06:30:34;;;;;;;6.75;1.40;;;20.40;64.80;;;;;;4994865;28;20587;-63
2022/05/11 06:33:00;;;;;;;6.68;1.33;;;20.40;64.40;;;;;;5009172;28;20079;-61
2022/05/11 06:35:27;;;;;;;6.05;1.25;;;20.40;64.30;;;;;;5000932;28;20081;-61
2022/05/11 06:37:54;;;;;;;8.30;1.17;;;20.40;64.10;;;;;;5013643;28;20037;-61
2022/05/11 06:40:20;;;;;;;6.53;1.40;;;20.40;63.60;;;;;;5014381;28;20108;-63
2022/05/11 06:42:48;;;;;;;5.90;1.10;;;20.40;63.70;;;;;;5001133;28;20038;-62
2022/05/11 06:45:14;;;;;;;6.00;1.65;;;20.40;63.80;;;;;;5004969;28;20037;-60
2022/05/11 06:47:40;;;;;;;7.30;1.17;;;20.40;63.70;;;;;;5010357;28;20052;-62
2022/05/11 06:50:07;;;;;;;5.63;1.30;;;20.40;63.50;;;;;;5016387;28;20482;-60
2022/05/11 06:52:32;;;;;;;6.15;1.50;;;20.50;63.30;;;;;;5015535;28;20345;-62
2022/05/11 07:00:32;;;;;;;4.80;1.23;;;20.50;63.20;;;;;;5014279;28;20040;-60
2022/05/11 07:02:57;;;;;;;8.23;1.30;;;20.50;63.00;;;;;;5007564;28;20538;-62
2022/05/11 07:05:23;;;;;;;3.53;1.08;;;20.50;63.10;;;;;;5005562;28;20041;-61
2022/05/11 07:07:51;;;;;;;5.45;1.10;;;20.50;62.90;;;;;;5014136;28;20045;-61
2022/05/11 07:10:17;;;;;;;5.05;1.08;;;20.50;63.00;;;;;;5002795;28;20546;-62
2022/05/11 07:12:48;;;;;;;4.03;0.98;;;20.50;62.60;;;;;;5011420;28;20030;-62
2022/05/11 07:15:20;;;;;;;6.78;1.20;;;20.60;62.70;;;;;;5011247;28;20026;-62
2022/05/11 07:17:47;;;;;;;;;;;20.60;62.60;;;;;;5018149;28;20076;-62
2022/05/11 07:20:18;;;;;;;4.70;1.10;;;20.60;63.00;;;;;;5015615;28;19952;-63
2022/05/11 07:22:44;;;;;;;5.07;1.25;;;20.60;62.50;;;;;;5013690;28;20018;-62
2022/05/11 07:25:12;;;;;;;3.20;0.77;;;20.60;62.60;;;;;;5013101;28;20116;-63
2022/05/11 07:27:38;;;;;;;4.57;1.20;;;20.70;62.40;;;;;;5012760;28;20030;-62
2022/05/11 07:30:06;;;;;;;5.18;1.10;;;20.70;62.60;;;;;;5001445;28;20022;-60
2022/05/11 07:32:32;;;;;;;6.82;1.70;;;20.70;62.30;;;;;;5003300;28;20061;-63
2022/05/11 07:34:57;;;;;;;6.57;1.17;;;20.70;62.40;;;;;;5013080;28;20068;-62
2022/05/11 07:37:23;;;;;;;6.15;1.13;;;20.80;62.50;;;;;;5013822;28;20022;-61
2022/05/11 07:39:49;;;;;;;6.32;1.30;;;20.80;62.40;;;;;;5013423;28;20037;-62
2022/05/11 07:42:16;;;;;;;4.20;1.10;;;20.80;62.30;;;;;;5013170;28;20376;-62
2022/05/11 07:44:42;;;;;;;3.88;0.93;;;20.80;62.50;;;;;;5012830;28;20188;-61
2022/05/11 07:47:10;;;;;;;6.38;2.08;;;20.90;62.40;;;;;;5013202;28;20140;-63
2022/05/11 07:49:36;;;;;;;4.97;1.38;;;20.90;62.50;;;;;;5012175;28;20034;-61
2022/05/11 07:52:02;;;;;;;5.47;1.30;;;20.90;62.50;;;;;;5012851;28;20379;-63
2022/05/11 07:54:29;;;;;;;6.13;1.63;;;21.00;62.50;;;;;;5013187;28;20084;-62
2022/05/11 07:59:59;;;;;;;7.93;1.30;;;21.00;62.30;;;;;;5013172;28;20044;-61
2022/05/11 08:02:29;;;;;;;9.27;1.30;;;21.00;62.20;;;;;;5012870;28;20029;-60
2022/05/11 08:04:58;;;;;;;6.20;1.65;;;21.00;62.20;;;;;;5012435;28;20117;-60
2022/05/11 08:07:27;;;;;;;4.15;1.17;;;21.00;62.30;;;;;;5011739;28;20030;-61
2022/05/11 08:10:02;;;;;;;4.15;1.08;;;21.10;62.20;;;;;;5011827;28;20045;-62
2022/05/11 08:12:27;;;;;;;2.65;0.95;;;21.10;62.50;;;;;;5005494;28;20037;-63
2022/05/11 08:14:54;;;;;;;5.63;0.93;;;21.10;62.50;;;;;;5013075;28;20022;-63
2022/05/11 08:17:25;;;;;;;7.22;1.48;;;21.20;62.40;;;;;;5011249;28;20100;-62
2022/05/11 08:19:51;;;;;;;4.63;1.17;;;21.20;62.70;;;;;;5012941;28;20061;-64
2022/05/11 08:22:16;;;;;;;4.97;1.48;;;21.10;62.60;;;;;;5013052;28;20105;-63
2022/05/11 08:24:42;;;;;;;3.38;0.77;;;21.20;62.40;;;;;;5012844;28;20516;-63
2022/05/11 08:27:09;;;;;;;6.68;1.45;;;21.20;62.30;;;;;;5012910;28;20487;-63
2022/05/11 08:35:04;;;;;;;8.75;1.85;;;21.30;62.50;;;;;;5016275;28;20037;-62
2022/05/11 08:37:30;;;;;;;6.03;1.30;;;21.30;62.30;;;;;;5010936;28;20037;-62
2022/05/11 08:39:56;;;;;;;5.97;0.95;;;21.30;62.30;;;;;;5015782;28;20030;-61
2022/05/11 08:42:24;;;;;;;7.53;1.30;;;21.30;62.20;;;;;;5016473;28;20030;-61
2022/05/11 08:44:50;;;;;;;7.68;1.23;;;21.30;62.10;;;;;;5016071;28;20022;-62
2022/05/11 08:47:28;;;;;;;6.57;1.20;;;21.30;62.30;;;;;;5016400;28;20034;-63
2022/05/11 08:50:10;;;;;;;3.05;0.82;;;21.30;62.20;;;;;;5016639;28;20018;-63
2022/05/11 08:52:58;;;;;;;6.75;1.23;;;21.40;62.30;;;;;;5016708;28;20481;-61
2022/05/11 08:55:37;;;;;;;4.78;0.98;;;21.40;62.30;;;;;;5016253;28;20061;-63
2022/05/11 08:58:31;;;;;;;4.43;1.30;;;21.50;62.20;;;;;;5015698;28;20030;-63
2022/05/11 09:00:58;;;;;;;5.78;1.52;;;21.40;62.10;;;;;;5014917;28;20037;-62
2022/05/11 09:03:35;;;;;;;9.32;1.55;;;21.50;62.00;;;;;;5016321;28;20014;-63
2022/05/11 09:06:05;;;;;;;6.28;1.30;;;21.50;62.10;;;;;;5014957;28;20064;-63
2022/05/11 09:08:37;;;;;;;3.33;0.90;;;21.50;62.10;;;;;;5014004;28;20029;-62
2022/05/11 09:11:05;;;;;;;4.85;1.40;;;21.60;62.20;;;;;;5012354;28;20175;-62
2022/05/11 09:13:31;;;;;;;5.10;1.30;;;21.60;62.50;;;;;;5012338;28;20018;-63
2022/05/11 09:16:00;;;;;;;5.80;1.20;;;21.60;62.60;;;;;;5015632;28;20041;-63
2022/05/11 09:18:34;;;;;;;7.72;1.50;;;21.50;62.60;;;;;;5014850;28;20423;-62
2022/05/11 09:21:10;;;;;;;6.55;1.55;;;21.60;62.70;;;;;;5012051;28;20513;-62
2022/05/11 09:23:40;;;;;;;5.10;1.20;;;21.60;62.70;;;;;;5015749;28;20057;-62
2022/05/11 09:26:12;;;;;;;5.97;1.40;;;21.60;62.60;;;;;;5015527;28;20136;-60
2022/05/11 09:28:45;;;;;;;7.90;1.63;;;21.60;62.80;;;;;;5016177;28;20026;-63
2022/05/11 09:31:28;;;;;;;7.60;1.90;;;21.70;62.70;;;;;;5015170;28;20018;-61
2022/05/11 09:33:57;;;;;;;7.25;1.30;;;21.70;63.10;;;;;;5015563;28;20029;-62
2022/05/11 09:36:41;;;;;;;5.05;1.20;;;21.60;62.90;;;;;;5015301;28;20032;-61
2022/05/11 09:39:17;;;;;;;8.63;1.83;;;21.70;63.20;;;;;;5014305;28;20368;-62
2022/05/11 09:41:51;;;;;;;5.07;1.00;;;21.70;63.20;;;;;;5015115;28;20482;-61
2022/05/11 09:44:23;;;;;;;5.32;1.25;;;21.70;63.20;;;;;;5015439;28;20278;-62
2022/05/11 09:46:49;;;;;;;7.38;1.30;;;21.70;63.20;;;;;;5015333;28;20088;-60
2022/05/11 09:49:18;;;;;;;5.45;1.23;;;21.70;63.20;;;;;;5015585;28;20022;-62
2022/05/11 09:51:46;;;;;;;8.52;1.30;;;21.80;63.30;;;;;;5014783;28;20034;-62
2022/05/11 09:54:17;;;;;;;5.18;1.55;;;21.80;63.40;;;;;;5015415;28;20054;-60
2022/05/11 09:56:49;;;;;;;5.97;1.20;;;21.80;63.30;;;;;;5014707;28;20537;-60
2022/05/11 09:59:31;;;;;;;7.07;1.57;;;21.80;63.40;;;;;;5015023;28;20097;-61
2022/05/11 10:02:21;;;;;;;4.65;1.50;;;21.80;63.40;;;;;;5015051;28;20359;-61
2022/05/11 10:05:17;;;;;;;7.80;1.50;;;21.80;63.50;;;;;;5015036;28;20041;-61
2022/05/11 10:08:01;;;;;;;4.45;1.63;;;21.80;63.70;;;;;;5014231;28;20124;-63
2022/05/11 10:10:40;;;;;;;5.38;1.50;;;21.80;63.40;;;;;;5014990;28;20470;-60
2022/05/11 10:13:20;;;;;;;6.03;1.77;;;21.90;63.40;;;;;;5014464;28;20038;-63
2022/05/11 10:21:50;;;;;;;3.28;1.40;;;21.90;63.60;;;;;;5011575;28;20041;-61
2022/05/11 10:24:31;;;;;;;6.90;1.80;;;21.90;63.60;;;;;;5004455;28;20022;-62
2022/05/11 10:27:04;;;;;;;5.53;1.35;;;21.90;63.80;;;;;;5014833;28;20056;-62
2022/05/11 10:29:48;;;;;;;5.65;1.25;;;21.90;63.70;;;;;;5015798;28;20106;-62
2022/05/11 10:32:19;;;;;;;6.18;1.70;;;21.90;63.90;;;;;;5013534;28;20438;-62
2022/05/11 10:34:56;;;;;;;7.78;1.63;;;21.90;63.90;;;;;;5009902;28;20037;-62
2022/05/11 10:37:59;;;;;;;8.30;1.63;;;21.90;64.10;;;;;;5014604;28;20501;-62
2022/05/11 10:40:44;;;;;;;3.33;1.38;;;21.90;64.00;;;;;;5006815;28;20046;-62
2022/05/11 10:43:42;;;;;;;5.45;1.45;;;21.90;64.10;;;;;;5009228;28;20503;-62
2022/05/11 10:46:37;;;;;;;7.30;1.85;;;21.90;64.10;;;;;;5010035;28;20418;-62
2022/05/11 10:49:19;;;;;;;9.88;1.42;;;21.90;64.10;;;;;;4994841;28;20026;-64
2022/05/11 10:52:12;;;;;;;8.50;1.77;;;21.90;64.30;;;;;;5013321;28;20105;-63
2022/05/11 10:54:49;;;;;;;4.07;1.40;;;22.00;64.00;;;;;;5012711;28;20490;-63
2022/05/11 10:57:42;;;;;;;4.32;1.40;;;22.00;64.50;;;;;;5013053;28;20464;-60
2022/05/11 11:00:08;;;;;;;8.18;1.33;;;21.90;64.50;;;;;;5009644;28;20560;-62
2022/05/11 11:02:59;;;;;;;7.32;1.60;;;21.90;64.40;;;;;;5007394;28;20109;-61
2022/05/11 11:05:38;;;;;;;7.68;1.65;;;22.00;64.40;;;;;;5012650;28;20029;-62
2022/05/11 11:08:37;;;;;;;6.50;1.25;;;22.00;64.60;;;;;;5011867;28;20519;-62
2022/05/11 11:11:28;;;;;;;4.65;1.15;;;22.00;64.50;;;;;;5011060;28;20057;-63
2022/05/11 11:14:01;;;;;;;4.57;1.30;;;22.00;64.50;;;;;;5002821;28;20124;-63
2022/05/11 11:16:32;;;;;;;6.10;1.27;;;22.00;64.50;;;;;;5007916;28;20101;-61
2022/05/11 11:18:59;;;;;;;4.20;1.20;;;22.00;64.40;;;;;;5002324;28;20025;-62
2022/05/11 11:21:25;;;;;;;5.53;1.50;;;22.10;64.40;;;;;;5008863;28;20048;-62
2022/05/11 11:24:10;;;;;;;5.25;1.20;;;22.10;64.30;;;;;;5008882;28;20049;-63
2022/05/11 11:26:53;;;;;;;3.88;1.27;;;22.10;64.20;;;;;;5008156;28;20522;-61
2022/05/11 11:29:31;;;;;;;6.43;1.02;;;22.10;64.20;;;;;;5012087;28;20030;-63
2022/05/11 11:31:56;;;;;;;10.45;1.83;;;22.10;64.10;;;;;;5007349;28;20029;-60
2022/05/11 11:34:25;;;;;;;6.18;1.30;;;22.10;64.10;;;;;;5008867;28;20030;-63
2022/05/11 11:36:52;;;;;;;6.55;1.52;;;22.20;64.20;;;;;;5006541;28;20053;-63
2022/05/11 11:39:48;;;;;;;9.23;1.60;;;22.10;64.20;;;;;;5007655;28;20053;-62
2022/05/11 11:42:38;;;;;;;7.80;1.30;;;22.20;64.20;;;;;;5006562;28;20029;-63
2022/05/11 11:45:31;;;;;;;7.70;1.75;;;22.30;63.80;;;;;;5008141;28;20108;-63
2022/05/11 11:48:18;;;;;;;5.65;1.67;;;22.30;63.30;;;;;;5005542;28;20128;-63
2022/05/11 11:50:53;;;;;;;10.27;1.75;;;22.30;63.20;;;;;;5003790;28;20030;-63
2022/05/11 11:53:33;;;;;;;5.13;1.63;;;22.20;63.30;;;;;;5008376;28;20033;-64
2022/05/11 11:56:23;;;;;;;7.28;1.73;;;22.20;63.80;;;;;;5003603;28;20036;-65
2022/05/11 11:59:03;;;;;;;5.93;1.73;;;22.20;63.80;;;;;;5001260;28;20038;-61
2022/05/11 12:01:33;;;;;;;7.20;1.50;;;22.20;63.90;;;;;;5007707;28;20044;-63
2022/05/11 12:04:09;;;;;;;5.82;1.50;;;22.30;63.70;;;;;;5004182;28;20060;-60
2022/05/11 12:15:01;;;;;;;12.20;1.75;;;22.30;63.70;;;;;;5008775;28;20665;-63
2022/05/11 12:17:36;;;;;;;5.47;1.50;;;22.40;63.40;;;;;;5009543;28;20025;-61
2022/05/11 12:20:09;;;;;;;9.80;1.50;;;22.40;63.00;;;;;;5010168;28;20060;-59
2022/05/11 12:22:50;;;;;;;14.30;1.75;;;22.40;63.00;;;;;;5011508;28;20029;-62
2022/05/11 12:25:26;;;;;;;10.27;1.75;;;22.50;63.10;;;;;;5008387;28;20032;-61
2022/05/11 12:27:52;;;;;;;10.23;2.15;;;22.40;63.10;;;;;;5009178;28;20037;-63
2022/05/11 12:30:32;;;;;;;7.32;1.13;;;22.50;62.90;;;;;;5011544;28;20128;-62
2022/05/11 12:33:04;;;;;;;7.32;1.45;;;22.50;62.90;;;;;;5008576;28;20022;-62
2022/05/11 12:35:36;;;;;;;5.65;1.80;;;22.50;63.10;;;;;;5004805;28;21119;-64
2022/05/11 12:38:03;;;;;;;5.32;1.33;;;22.50;63.30;;;;;;5008215;28;20034;-59
2022/05/11 12:40:32;;;;;;;5.65;1.10;;;22.50;63.40;;;;;;5009435;28;20479;-61
2022/05/11 12:43:06;;;;;;;3.50;1.38;;;22.50;63.40;;;;;;5016368;28;20030;-59
2022/05/11 12:45:40;;;;;;;5.05;1.55;;;22.60;63.40;;;;;;5010344;28;20398;-59
2022/05/11 12:48:07;;;;;;;3.97;1.15;;;22.60;63.40;;;;;;5004308;28;20014;-59
2022/05/11 12:50:48;;;;;;;6.13;1.63;;;22.60;63.40;;;;;;5010604;28;20030;-60
2022/05/11 12:53:16;;;;;;;3.70;1.25;;;22.60;63.40;;;;;;5004730;28;20498;-63
2022/05/11 12:55:46;;;;;;;5.15;1.40;;;22.60;63.50;;;;;;5013278;28;20243;-60
2022/05/11 12:58:42;;;;;;;3.72;1.30;;;22.60;63.50;;;;;;5027907;28;20025;-61
2022/05/11 13:01:12;;;;;;;6.30;1.02;;;22.60;63.60;;;;;;5009102;28;20167;-62
2022/05/11 13:03:38;;;;;;;4.35;1.33;;;22.60;63.40;;;;;;5014659;28;20037;-64
2022/05/11 13:06:40;;;;;;;6.85;1.75;;;22.60;63.30;;;;;;5010848;28;20050;-60
2022/05/11 13:09:08;;;;;;;7.75;1.10;;;22.60;63.40;;;;;;5006826;28;20096;-60
2022/05/11 13:11:36;;;;;;;4.00;1.15;;;22.70;63.50;;;;;;5011759;28;20109;-65
2022/05/11 13:14:10;;;;;;;3.03;0.95;;;22.70;63.50;;;;;;5012989;28;20100;-62
2022/05/11 13:16:37;;;;;;;5.07;1.25;;;22.70;63.40;;;;;;5015431;28;20022;-61
2022/05/11 13:19:21;;;;;;;2.67;1.10;;;22.80;64.00;;;;;;5014775;28;20075;-62
2022/05/11 13:21:48;;;;;;;4.47;1.23;;;22.80;63.30;;;;;;5014544;28;20391;-60
2022/05/11 13:24:14;;;;;;;5.63;1.35;;;22.80;63.20;;;;;;5014767;28;20026;-60
2022/05/11 13:26:42;;;;;;;3.40;0.90;;;22.80;63.10;;;;;;5014315;28;20037;-61
2022/05/11 13:29:23;;;;;;;5.55;1.23;;;22.80;63.10;;;;;;5014532;28;20033;-60
2022/05/11 13:32:03;;;;;;;4.60;1.20;;;22.80;63.30;;;;;;5015051;28;20034;-60
2022/05/11 13:34:39;;;;;;;3.08;1.23;;;22.80;63.60;;;;;;5014806;28;20033;-61
2022/05/11 13:37:12;;;;;;;4.60;1.17;;;22.80;63.30;;;;;;5012691;28;20395;-61
2022/05/11 13:39:40;;;;;;;5.65;1.40;;;22.80;63.30;;;;;;5011179;28;20037;-60
2022/05/11 13:42:20;;;;;;;3.97;1.00;;;22.80;63.30;;;;;;5014036;28;20034;-59
2022/05/11 13:45:04;;;;;;;3.05;1.45;;;22.80;63.50;;;;;;5011787;28;20033;-61